createdAt,value
2022-10-03T00:00:32.937Z,63.34
2022-10-03T00:03:22.886Z,63.72
2022-10-03T00:05:56.268Z,63.14
2022-10-03T00:09:01.623Z,63.48
2022-10-03T00:11:41.341Z,63.34
2022-10-03T00:14:30.159Z,63.33
2022-10-03T00:17:39.168Z,63.07
2022-10-03T00:20:45.285Z,63.19
2022-10-03T00:23:24.120Z,64.21
2022-10-03T00:26:27.635Z,63.43
2022-10-03T00:29:01.245Z,63.07
2022-10-03T00:31:34.777Z,62.79
2022-10-03T00:34:19.566Z,63.42
2022-10-03T00:37:26.269Z,63.09
2022-10-03T00:40:50.807Z,62.78
2022-10-03T00:43:33.275Z,62.76
2022-10-03T00:46:17.658Z,62.73
2022-10-03T00:49:23.591Z,62.76
2022-10-03T00:52:17.039Z,62.80
2022-10-03T00:54:56.430Z,62.55
2022-10-03T00:57:46.172Z,62.64
2022-10-03T01:00:18.488Z,63.29
2022-10-03T01:02:52.194Z,62.79
2022-10-03T01:05:45.814Z,62.46
2022-10-03T01:08:31.523Z,63.09
2022-10-03T01:11:07.933Z,63.50
2022-10-03T01:13:50.428Z,62.91
2022-10-03T01:16:37.904Z,63.14
2022-10-03T01:19:45.773Z,63.36
2022-10-03T01:22:28.927Z,63.10
2022-10-03T01:25:25.675Z,63.69
2022-10-03T01:28:34.011Z,63.32
2022-10-03T01:31:03.396Z,63.15
2022-10-03T01:33:37.590Z,63.11
2022-10-03T01:36:26.203Z,62.55
2022-10-03T01:39:00.566Z,62.61
2022-10-03T01:41:44.619Z,62.76
2022-10-03T01:44:40.467Z,63.08
2022-10-03T01:47:20.969Z,63.32
2022-10-03T01:49:51.783Z,63.33
2022-10-03T01:52:37.207Z,63.16
2022-10-03T01:55:32.883Z,63.43
2022-10-03T01:58:11.157Z,63.17
2022-10-03T02:01:23.307Z,63.68
2022-10-03T02:03:57.608Z,63.82
2022-10-03T02:06:38.332Z,63.35
2022-10-03T02:09:26.559Z,63.72
2022-10-03T02:12:01.909Z,63.71
2022-10-03T02:14:41.865Z,63.79
2022-10-03T02:17:22.624Z,63.37
2022-10-03T02:20:13.780Z,63.34
2022-10-03T02:22:46.189Z,63.50
2022-10-03T02:25:25.639Z,63.37
2022-10-03T02:28:08.070Z,63.50
2022-10-03T02:30:37.148Z,63.19
2022-10-03T02:33:19.634Z,62.93
2022-10-03T02:35:57.408Z,62.65
2022-10-03T02:38:54.668Z,62.74
2022-10-03T02:41:32.721Z,62.28
2022-10-03T02:44:15.760Z,62.25
2022-10-03T02:47:37.349Z,62.49
2022-10-03T02:50:38.890Z,62.17
2022-10-03T02:53:35.727Z,62.34
2022-10-03T02:56:51.413Z,61.90
2022-10-03T02:59:32.109Z,62.09
2022-10-03T03:02:09.873Z,62.06
2022-10-03T03:04:52.108Z,61.93
2022-10-03T03:07:49.085Z,61.82
2022-10-03T03:10:52.548Z,61.66
2022-10-03T03:13:41.198Z,61.69
2022-10-03T03:16:50.416Z,61.89
2022-10-03T03:19:26.498Z,61.96
2022-10-03T03:22:04.034Z,62.04
2022-10-03T03:24:59.575Z,62.08
2022-10-03T03:27:39.823Z,62.30
2022-10-03T03:30:20.538Z,62.50
2022-10-03T03:33:11.125Z,62.16
2022-10-03T03:36:01.615Z,62.08
2022-10-03T03:39:04.203Z,62.13
2022-10-03T03:41:45.289Z,61.84
2022-10-03T03:44:42.666Z,61.95
2022-10-03T03:47:34.758Z,62.11
2022-10-03T03:50:29.847Z,61.84
2022-10-03T03:53:51.305Z,61.41
2022-10-03T03:56:27.611Z,61.58
2022-10-03T03:59:08.435Z,61.59
2022-10-03T04:01:46.639Z,61.68
2022-10-03T04:04:39.234Z,61.46
2022-10-03T04:07:19.487Z,61.59
2022-10-03T04:10:07.389Z,61.26
2022-10-03T04:13:19.262Z,61.54
2022-10-03T04:16:00.545Z,61.44
2022-10-03T04:18:54.631Z,61.75
2022-10-03T04:22:03.909Z,61.72
2022-10-03T04:24:46.192Z,61.63
2022-10-03T04:27:18.318Z,61.45
2022-10-03T04:30:10.051Z,61.81
2022-10-03T04:32:59.855Z,62.05
2022-10-03T04:35:33.259Z,62.03
2022-10-03T04:38:12.002Z,62.13
2022-10-03T04:40:59.836Z,61.98
2022-10-03T04:43:52.520Z,62.07
2022-10-03T04:46:27.783Z,62.13
2022-10-03T04:49:05.284Z,62.31
2022-10-03T04:51:41.834Z,61.89
2022-10-03T04:54:21.946Z,61.63
2022-10-03T04:57:07.923Z,61.96
2022-10-03T04:59:42.798Z,62.15
2022-10-03T05:02:30.527Z,61.96
2022-10-03T05:05:23.123Z,62.03
2022-10-03T05:07:56.482Z,62.45
2022-10-03T05:10:39.237Z,62.73
2022-10-03T05:13:13.531Z,62.70
2022-10-03T05:15:51.785Z,62.30
2022-10-03T05:18:37.868Z,62.61
2022-10-03T05:21:14.411Z,62.84
2022-10-03T05:24:02.865Z,62.41
2022-10-03T05:26:44.942Z,62.61
2022-10-03T05:29:17.747Z,62.31
2022-10-03T05:32:10.132Z,61.85
2022-10-03T05:34:49.621Z,62.29
2022-10-03T05:37:28.992Z,63.09
2022-10-03T05:40:14.492Z,62.63
2022-10-03T05:43:01.724Z,62.41
2022-10-03T05:45:36.426Z,61.79
2022-10-03T05:48:11.503Z,61.74
2022-10-03T05:50:56.644Z,61.57
2022-10-03T05:53:30.235Z,60.48
2022-10-03T05:56:27.141Z,61.01
2022-10-03T05:59:25.696Z,60.42
2022-10-03T06:02:14.690Z,60.23
2022-10-03T06:04:53.380Z,59.62
2022-10-03T06:07:29.323Z,58.57
2022-10-03T06:10:21.517Z,57.84
2022-10-03T06:13:05.958Z,57.61
2022-10-03T06:15:39.596Z,56.28
2022-10-03T06:18:32.231Z,56.78
2022-10-03T06:21:56.852Z,56.65
2022-10-03T06:24:56.235Z,55.61
2022-10-03T06:27:48.755Z,55.13
2022-10-03T06:30:22.022Z,54.76
2022-10-03T06:33:11.169Z,54.56
2022-10-03T06:36:11.896Z,53.74
2022-10-03T06:39:10.701Z,53.94
2022-10-03T06:42:08.971Z,55.11
2022-10-03T06:44:55.080Z,54.26
2022-10-03T06:47:39.175Z,55.10
2022-10-03T06:51:00.863Z,54.43
2022-10-03T06:53:45.439Z,54.11
2022-10-03T06:56:31.805Z,52.74
2022-10-03T06:59:36.330Z,53.71
2022-10-03T07:02:20.317Z,53.44
2022-10-03T07:05:02.708Z,53.41
2022-10-03T07:08:02.508Z,53.39
2022-10-03T07:10:54.591Z,52.93
2022-10-03T07:14:00.841Z,52.60
2022-10-03T07:17:03.161Z,52.97
2022-10-03T07:20:02.279Z,52.97
2022-10-03T07:22:35.643Z,54.32
2022-10-03T07:25:25.633Z,54.38
2022-10-03T07:27:59.073Z,54.48
2022-10-03T07:30:32.137Z,54.29
2022-10-03T07:33:27.764Z,54.18
2022-10-03T07:36:56.337Z,53.64
2022-10-03T07:39:43.303Z,54.10
2022-10-03T07:42:42.429Z,54.06
2022-10-03T07:45:37.999Z,59.02
2022-10-03T07:48:18.202Z,54.28
2022-10-03T07:51:04.248Z,54.19
2022-10-03T07:53:53.726Z,54.27
2022-10-03T07:56:49.071Z,53.02
2022-10-03T08:00:02.809Z,53.10
2022-10-03T08:03:17.025Z,52.60
2022-10-03T08:06:06.742Z,52.17
2022-10-03T08:08:50.439Z,51.14
2022-10-03T08:11:41.601Z,51.21
2022-10-03T08:14:19.044Z,50.62
2022-10-03T08:17:04.873Z,50.54
2022-10-03T08:19:50.324Z,50.21
2022-10-03T08:22:36.563Z,49.61
2022-10-03T08:25:20.100Z,49.67
2022-10-03T08:28:10.788Z,49.87
2022-10-03T08:31:09.306Z,48.77
2022-10-03T08:34:01.755Z,48.05
2022-10-03T08:36:59.815Z,48.78
2022-10-03T08:39:45.516Z,47.58
2022-10-03T08:42:38.631Z,47.68
2022-10-03T08:45:43.123Z,47.04
2022-10-03T08:48:40.895Z,47.39
2022-10-03T08:51:49.994Z,47.16
2022-10-03T08:55:02.364Z,47.27
2022-10-03T08:57:41.094Z,46.77
2022-10-03T09:00:22.815Z,47.96
2022-10-03T09:03:28.636Z,47.74
2022-10-03T09:06:24.372Z,47.91
2022-10-03T09:09:12.069Z,47.44
2022-10-03T09:12:24.474Z,47.48
2022-10-03T09:15:01.045Z,47.86
2022-10-03T09:17:46.826Z,48.46
2022-10-03T09:20:25.908Z,48.55
2022-10-03T09:23:16.162Z,47.63
2022-10-03T09:26:21.179Z,47.94
2022-10-03T09:29:06.269Z,48.14
2022-10-03T09:32:11.045Z,48.38
2022-10-03T09:34:54.804Z,47.52
2022-10-03T09:38:00.105Z,47.80
2022-10-03T09:41:00.716Z,47.62
2022-10-03T09:43:45.833Z,45.81
2022-10-03T09:46:40.893Z,47.02
2022-10-03T09:49:52.460Z,46.78
2022-10-03T09:52:33.083Z,46.38
2022-10-03T09:55:12.643Z,46.58
2022-10-03T09:58:15.452Z,46.47
2022-10-03T10:01:11.362Z,45.71
2022-10-03T10:04:11.519Z,47.22
2022-10-03T10:07:08.182Z,45.92
2022-10-03T10:10:13.804Z,45.83
2022-10-03T10:13:11.983Z,45.41
2022-10-03T10:15:53.383Z,46.45
2022-10-03T10:18:54.294Z,45.23
2022-10-03T10:21:46.410Z,45.78
2022-10-03T10:24:22.614Z,46.05
2022-10-03T10:27:19.664Z,45.84
2022-10-03T10:30:02.672Z,45.61
2022-10-03T10:32:52.267Z,46.67
2022-10-03T10:35:39.402Z,47.07
2022-10-03T10:38:25.943Z,45.78
2022-10-03T10:41:17.636Z,47.48
2022-10-03T10:44:07.125Z,47.49
2022-10-03T10:46:59.075Z,47.40
2022-10-03T10:49:41.615Z,47.83
2022-10-03T10:52:29.279Z,47.55
2022-10-03T10:55:19.518Z,47.96
2022-10-03T10:58:05.104Z,47.51
2022-10-03T11:00:44.753Z,47.80
2022-10-03T11:03:50.396Z,47.72
2022-10-03T11:06:45.945Z,47.86
2022-10-03T11:09:28.473Z,48.73
2022-10-03T11:12:27.130Z,48.86
2022-10-03T11:15:15.639Z,49.39
2022-10-03T11:17:47.562Z,48.54
2022-10-03T11:20:49.312Z,47.33
2022-10-03T11:23:50.925Z,47.53
2022-10-03T11:27:00.842Z,47.04
2022-10-03T11:29:39.449Z,46.68
2022-10-03T11:32:46.631Z,47.80
2022-10-03T11:35:32.697Z,47.92
2022-10-03T11:38:25.320Z,47.60
2022-10-03T11:41:01.938Z,47.34
2022-10-03T11:43:53.376Z,47.91
2022-10-03T11:46:59.731Z,47.14
2022-10-03T11:49:49.143Z,46.94
2022-10-03T11:52:35.288Z,46.81
2022-10-03T11:55:08.804Z,47.18
2022-10-03T11:57:39.268Z,47.64
2022-10-03T12:00:16.706Z,47.40
2022-10-03T12:03:08.167Z,46.76
2022-10-03T12:05:46.270Z,46.18
2022-10-03T12:08:38.668Z,46.09
2022-10-03T12:11:18.011Z,45.87
2022-10-03T12:14:11.779Z,46.27
2022-10-03T12:17:15.860Z,47.17
2022-10-03T12:19:46.283Z,46.55
2022-10-03T12:22:22.912Z,46.84
2022-10-03T12:24:50.751Z,47.19
2022-10-03T12:28:01.614Z,47.31
2022-10-03T12:30:55.446Z,47.22
2022-10-03T12:33:51.654Z,46.95
2022-10-03T12:36:45.217Z,46.20
2022-10-03T12:39:44.948Z,46.99
2022-10-03T12:42:19.649Z,45.77
2022-10-03T12:45:25.721Z,46.08
2022-10-03T12:47:56.076Z,45.68
2022-10-03T12:51:01.906Z,45.65
2022-10-03T12:53:41.877Z,44.50
2022-10-03T12:56:18.357Z,44.13
2022-10-03T12:58:53.700Z,43.93
2022-10-03T13:01:20.885Z,45.62
2022-10-03T13:03:54.567Z,46.14
2022-10-03T13:07:04.571Z,52.36
2022-10-03T13:09:43.943Z,56.19
2022-10-03T13:12:34.883Z,56.66
2022-10-03T13:15:40.475Z,57.66
2022-10-03T13:18:18.406Z,57.44
2022-10-03T13:21:26.770Z,58.51
2022-10-03T13:24:04.545Z,57.84
2022-10-03T13:26:56.674Z,57.31
2022-10-03T13:29:40.483Z,54.88
2022-10-03T13:32:32.456Z,56.36
2022-10-03T13:35:36.953Z,56.43
2022-10-03T13:38:28.371Z,56.02
2022-10-03T13:41:04.072Z,55.49
2022-10-03T13:43:36.207Z,54.23
2022-10-03T13:46:16.809Z,53.99
2022-10-03T13:48:51.515Z,53.55
2022-10-03T13:51:25.216Z,52.78
2022-10-03T13:54:07.905Z,51.91
2022-10-03T13:56:38.612Z,53.31
2022-10-03T13:59:21.882Z,52.77
2022-10-03T14:02:08.838Z,52.99
2022-10-03T14:04:55.388Z,51.81
2022-10-03T14:07:39.275Z,51.83
2022-10-03T14:10:19.681Z,51.64
2022-10-03T14:13:17.403Z,51.32
2022-10-03T14:15:47.637Z,52.19
2022-10-03T14:18:37.553Z,51.20
2022-10-03T14:21:39.998Z,52.02
2022-10-03T14:24:37.011Z,53.36
2022-10-03T14:27:38.927Z,51.37
2022-10-03T14:30:13.039Z,51.05
2022-10-03T14:32:59.525Z,50.15
2022-10-03T14:35:39.647Z,49.42
2022-10-03T14:38:54.056Z,49.09
2022-10-03T14:41:26.428Z,48.95
2022-10-03T14:43:57.002Z,49.54
2022-10-03T14:46:26.273Z,49.10
2022-10-03T14:48:59.421Z,50.09
2022-10-03T14:51:31.551Z,49.38
2022-10-03T14:54:02.902Z,50.17
2022-10-03T14:56:34.935Z,50.11
2022-10-03T14:59:12.016Z,49.17
2022-10-03T15:01:49.577Z,50.32
2022-10-03T15:04:32.108Z,50.31
2022-10-03T15:07:02.736Z,50.93
2022-10-03T15:09:40.898Z,50.41
2022-10-03T15:12:24.210Z,51.48
2022-10-03T15:15:00.084Z,50.77
2022-10-03T15:17:30.438Z,51.10
2022-10-03T15:19:59.945Z,51.43
2022-10-03T15:22:42.333Z,50.66
2022-10-03T15:25:17.794Z,50.01
2022-10-03T15:27:53.920Z,50.63
2022-10-03T15:30:31.815Z,50.92
2022-10-03T15:33:25.988Z,50.91
2022-10-03T15:35:55.440Z,50.63
2022-10-03T15:38:26.792Z,50.60
2022-10-03T15:41:00.455Z,50.51
2022-10-03T15:43:34.357Z,49.51
2022-10-03T15:46:05.502Z,48.65
2022-10-03T15:48:33.188Z,50.19
2022-10-03T15:51:17.208Z,49.67
2022-10-03T15:53:48.178Z,49.90
2022-10-03T15:56:43.862Z,49.11
2022-10-03T15:59:21.980Z,49.59
2022-10-03T16:01:52.628Z,50.17
2022-10-03T16:04:24.252Z,49.51
2022-10-03T16:07:10.883Z,48.59
2022-10-03T16:09:56.591Z,48.77
2022-10-03T16:12:45.904Z,48.98
2022-10-03T16:15:27.492Z,48.61
2022-10-03T16:18:01.111Z,48.92
2022-10-03T16:20:29.643Z,49.41
2022-10-03T16:22:59.132Z,49.31
2022-10-03T16:25:40.339Z,49.23
2022-10-03T16:28:12.565Z,49.02
2022-10-03T16:30:47.478Z,48.87
2022-10-03T16:33:23.717Z,48.92
2022-10-03T16:35:53.739Z,48.75
2022-10-03T16:38:24.401Z,48.99
2022-10-03T16:41:10.471Z,48.93
2022-10-03T16:43:38.121Z,49.51
2022-10-03T16:46:09.822Z,49.48
2022-10-03T16:48:55.859Z,49.37
2022-10-03T16:51:43.166Z,49.15
2022-10-03T16:54:15.589Z,49.62
2022-10-03T16:56:51.104Z,48.92
2022-10-03T16:59:20.034Z,49.36
2022-10-03T17:01:54.088Z,49.60
2022-10-03T17:04:21.535Z,48.98
2022-10-03T17:06:51.200Z,49.06
2022-10-03T17:09:49.257Z,49.62
2022-10-03T17:12:21.842Z,49.62
2022-10-03T17:14:49.053Z,49.67
2022-10-03T17:17:45.008Z,49.24
2022-10-03T17:20:18.581Z,48.96
2022-10-03T17:23:00.596Z,49.35
2022-10-03T17:25:34.628Z,49.59
2022-10-03T17:28:06.363Z,49.50
2022-10-03T17:30:45.982Z,49.55
2022-10-03T17:33:18.478Z,49.50
2022-10-03T17:36:24.729Z,49.75
2022-10-03T17:39:20.844Z,49.33
2022-10-03T17:42:33.804Z,49.68
2022-10-03T17:45:16.606Z,49.18
2022-10-03T17:47:46.905Z,48.99
2022-10-03T17:50:26.459Z,49.12
2022-10-03T17:52:54.145Z,48.97
2022-10-03T17:55:31.164Z,49.60
2022-10-03T17:58:17.660Z,49.40
2022-10-03T18:00:45.245Z,49.79
2022-10-03T18:03:53.337Z,49.90
2022-10-03T18:06:20.542Z,49.57
2022-10-03T18:08:50.338Z,49.55
2022-10-03T18:11:23.868Z,49.24
2022-10-03T18:13:55.165Z,49.92
2022-10-03T18:16:36.291Z,49.75
2022-10-03T18:19:36.453Z,49.55
2022-10-03T18:22:08.225Z,49.91
2022-10-03T18:25:34.645Z,49.44
2022-10-03T18:28:39.277Z,49.00
2022-10-03T18:31:10.694Z,49.33
2022-10-03T18:33:51.045Z,49.55
2022-10-03T18:36:25.931Z,49.37
2022-10-03T18:39:17.175Z,49.62
2022-10-03T18:41:47.508Z,49.95
2022-10-03T18:44:18.606Z,49.75
2022-10-03T18:46:50.799Z,49.76
2022-10-03T18:49:36.201Z,50.39
2022-10-03T18:52:10.706Z,50.26
2022-10-03T18:54:41.074Z,50.30
2022-10-03T18:57:22.236Z,50.43
2022-10-03T19:00:14.106Z,50.69
2022-10-03T19:02:47.820Z,49.73
2022-10-03T19:05:21.870Z,50.66
2022-10-03T19:07:55.902Z,50.65
2022-10-03T19:10:39.170Z,51.02
2022-10-03T19:13:29.498Z,53.44
2022-10-03T19:16:16.871Z,51.94
2022-10-03T19:18:53.761Z,51.55
2022-10-03T19:21:22.578Z,51.71
2022-10-03T19:24:14.901Z,51.62
2022-10-03T19:26:47.641Z,51.88
2022-10-03T19:29:21.663Z,51.44
2022-10-03T19:31:59.274Z,51.01
2022-10-03T19:34:37.092Z,51.17
2022-10-03T19:37:16.252Z,51.60
2022-10-03T19:39:44.297Z,51.72
2022-10-03T19:42:33.564Z,51.92
2022-10-03T19:45:01.359Z,52.33
2022-10-03T19:47:31.871Z,51.55
2022-10-03T19:50:19.113Z,51.91
2022-10-03T19:52:48.213Z,52.11
2022-10-03T19:55:24.873Z,51.87
2022-10-03T19:57:54.979Z,52.08
2022-10-03T20:00:39.351Z,51.43
2022-10-03T20:03:12.498Z,51.59
2022-10-03T20:06:01.840Z,51.53
2022-10-03T20:09:01.952Z,51.66
2022-10-03T20:11:42.716Z,51.55
2022-10-03T20:14:34.261Z,51.85
2022-10-03T20:17:10.521Z,50.99
2022-10-03T20:19:54.265Z,51.64
2022-10-03T20:22:31.288Z,51.64
2022-10-03T20:25:00.096Z,51.45
2022-10-03T20:27:27.296Z,51.26
2022-10-03T20:30:24.592Z,51.59
2022-10-03T20:32:53.632Z,51.56
2022-10-03T20:35:27.224Z,51.63
2022-10-03T20:38:02.265Z,51.46
2022-10-03T20:40:36.397Z,51.53
2022-10-03T20:43:20.013Z,51.95
2022-10-03T20:46:10.800Z,51.86
2022-10-03T20:48:42.811Z,52.29
2022-10-03T20:51:21.249Z,52.35
2022-10-03T20:53:53.147Z,52.37
2022-10-03T20:56:25.385Z,52.13
2022-10-03T20:58:57.024Z,52.19
2022-10-03T21:01:26.082Z,52.31
2022-10-03T21:04:27.933Z,52.77
2022-10-03T21:07:05.865Z,52.44
2022-10-03T21:09:43.577Z,52.56
2022-10-03T21:12:17.159Z,52.48
2022-10-03T21:14:48.808Z,52.81
2022-10-03T21:17:17.428Z,52.51
2022-10-03T21:19:52.388Z,52.61
2022-10-03T21:22:23.237Z,52.78
2022-10-03T21:24:59.244Z,53.41
2022-10-03T21:27:27.113Z,53.11
2022-10-03T21:30:18.530Z,53.36
2022-10-03T21:32:54.880Z,53.30
2022-10-03T21:35:34.064Z,53.57
2022-10-03T21:38:32.188Z,53.86
2022-10-03T21:41:38.762Z,53.95
2022-10-03T21:44:29.505Z,53.41
2022-10-03T21:47:10.224Z,53.71
2022-10-03T21:49:47.639Z,53.57
2022-10-03T21:52:27.308Z,53.90
2022-10-03T21:55:21.674Z,53.90
2022-10-03T21:58:22.986Z,54.17
2022-10-03T22:00:59.377Z,54.33
2022-10-03T22:03:54.400Z,54.36
2022-10-03T22:06:27.288Z,54.66
2022-10-03T22:09:01.201Z,54.76
2022-10-03T22:11:28.361Z,53.99
2022-10-03T22:14:10.060Z,54.73
2022-10-03T22:17:09.497Z,54.17
2022-10-03T22:19:42.060Z,54.45
2022-10-03T22:22:28.778Z,54.19
2022-10-03T22:25:24.358Z,53.50
2022-10-03T22:28:10.412Z,54.07
2022-10-03T22:30:44.863Z,54.33
2022-10-03T22:33:44.462Z,54.26
2022-10-03T22:36:12.540Z,53.62
2022-10-03T22:38:40.771Z,53.97
2022-10-03T22:41:12.269Z,54.06
2022-10-03T22:43:40.895Z,54.17
2022-10-03T22:46:11.605Z,53.89
2022-10-03T22:48:55.504Z,53.98
2022-10-03T22:51:23.478Z,54.27
2022-10-03T22:53:54.195Z,53.87
2022-10-03T22:56:58.537Z,53.65
2022-10-03T22:59:29.893Z,54.12
2022-10-03T23:01:59.846Z,54.03
2022-10-03T23:04:50.116Z,53.96
2022-10-03T23:08:07.115Z,54.23
2022-10-03T23:10:40.655Z,53.59
2022-10-03T23:13:17.275Z,54.34
2022-10-03T23:15:49.123Z,54.61
2022-10-03T23:18:39.027Z,54.79
2022-10-03T23:21:11.037Z,54.89
2022-10-03T23:23:50.585Z,54.77
2022-10-03T23:26:32.629Z,54.64
2022-10-03T23:29:10.464Z,54.96
2022-10-03T23:32:00.093Z,54.97
2022-10-03T23:34:36.373Z,55.03
2022-10-03T23:37:13.219Z,54.52
2022-10-03T23:39:46.255Z,54.99
2022-10-03T23:42:32.375Z,54.99
2022-10-03T23:45:00.732Z,55.18
2022-10-03T23:47:33.831Z,55.76
2022-10-03T23:50:03.107Z,55.62
2022-10-03T23:52:36.628Z,55.96
2022-10-03T23:55:06.268Z,56.44
2022-10-03T23:57:37.620Z,56.00
